Time;durP1;ratioP1;P1;durP2;ratioP2;P2;SDS_P1;SDS_P2;PMS_P1;PMS_P2;Temp;Humidity;BMP_temperature;BMP_pressure;BME280_temperature;BME280_humidity;BME280_pressure;Samples;Min_cycle;Max_cycle;Signal;HPM_P1;HPM_P2
2023/09/17 19:06:57;;;;;;;2.90;1.97;;;26.50;98.50;;;27.20;59.50;100064.88;4840661;29;20903;-68
2023/09/17 19:09:24;;;;;;;2.57;2.27;;;26.50;98.80;;;27.17;59.83;100060.00;4857851;29;20640;-68
2023/09/17 19:11:51;;;;;;;3.97;2.63;;;26.40;98.90;;;27.13;60.17;100060.69;4858674;29;21281;-67
2023/09/17 19:14:18;;;;;;;2.53;2.37;;;26.40;99.10;;;27.10;60.16;100053.09;4844234;29;20749;-70
2023/09/17 19:16:45;;;;;;;3.20;2.53;;;26.40;99.30;;;27.04;58.58;100056.72;4861821;29;20637;-72
2023/09/17 19:19:12;;;;;;;3.80;3.07;;;26.30;98.40;;;27.00;59.29;100055.53;4857522;29;20639;-67
2023/09/17 19:21:39;;;;;;;3.33;2.60;;;26.30;99.00;;;26.97;59.90;100051.47;4843045;29;20635;-67
2023/09/17 19:24:07;;;;;;;2.70;2.40;;;26.20;99.40;;;26.89;58.46;100049.13;4861046;29;20636;-67
2023/09/17 19:26:34;;;;;;;4.00;2.40;;;26.20;98.80;;;26.80;58.52;100047.81;4861081;29;20657;-67
2023/09/17 19:29:03;;;;;;;3.50;2.60;;;26.10;98.50;;;26.72;59.00;100040.09;4861229;29;20729;-67
2023/09/17 19:31:30;;;;;;;2.90;2.63;;;26.00;98.60;;;26.65;59.37;100039.38;4861774;29;20692;-67
2023/09/17 19:33:58;;;;;;;2.97;2.67;;;26.00;99.30;;;26.56;59.62;100032.69;4858715;29;21106;-66
2023/09/17 19:36:25;;;;;;;2.23;2.13;;;25.90;99.20;;;26.49;60.17;100037.34;4861002;29;20648;-67
2023/09/17 19:38:53;;;;;;;2.40;2.20;;;25.80;99.40;;;26.48;60.38;100030.34;4861162;29;21240;-67
2023/09/17 19:41:20;;;;;;;2.70;2.07;;;25.80;99.70;;;26.45;60.35;100033.50;4860390;29;20631;-67
2023/09/17 19:43:47;;;;;;;2.10;2.00;;;25.80;99.90;;;26.44;60.30;100039.88;4860641;29;20985;-67
2023/09/17 19:46:14;;;;;;;2.97;1.90;;;25.70;99.90;;;26.43;60.50;100043.63;4860824;29;20998;-66
2023/09/17 19:48:41;;;;;;;4.90;2.20;;;25.70;99.90;;;26.40;60.75;100044.06;4860586;29;20692;-67
2023/09/17 19:51:10;;;;;;;3.30;3.00;;;25.70;99.90;;;26.41;61.26;100040.31;4865748;29;20727;-66
2023/09/17 19:53:40;;;;;;;3.40;2.30;;;25.70;99.90;;;26.40;61.45;100046.72;4863605;29;20720;-67
2023/09/17 19:56:06;;;;;;;5.70;2.57;;;25.70;99.90;;;26.39;61.43;100034.38;4844620;29;20651;-67
2023/09/17 19:58:33;;;;;;;3.10;2.83;;;25.70;99.90;;;26.38;61.55;100027.41;4860386;29;20850;-67
2023/09/17 20:01:02;;;;;;;2.90;2.50;;;25.70;99.90;;;26.37;61.75;100033.78;4861196;29;20661;-66
2023/09/17 20:03:30;;;;;;;3.20;2.90;;;25.70;99.90;;;26.36;62.71;100034.84;4859989;29;21193;-64
2023/09/17 20:05:57;;;;;;;3.47;3.20;;;25.60;99.90;;;26.31;63.17;100030.19;4859899;29;20660;-68
2023/09/17 20:08:25;;;;;;;4.43;2.90;;;25.60;99.90;;;26.28;63.27;100025.28;4860510;29;20636;-67
2023/09/17 20:10:52;;;;;;;3.60;2.97;;;25.60;99.90;;;26.25;63.85;100019.56;4860503;29;20644;-67
2023/09/17 20:13:19;;;;;;;3.60;3.00;;;25.50;99.90;;;26.20;64.26;100016.75;4863435;29;20672;-66
2023/09/17 20:15:47;;;;;;;3.77;3.40;;;25.50;99.90;;;26.16;64.47;100013.72;4859736;29;20653;-69
2023/09/17 20:18:14;;;;;;;3.20;2.83;;;25.50;99.90;;;26.13;64.99;100014.16;4855686;29;20664;-68
2023/09/17 20:20:46;;;;;;;5.23;3.10;;;25.40;99.90;;;26.08;65.21;100009.50;4860460;29;20747;-67
2023/09/17 20:23:13;;;;;;;4.90;3.20;;;25.40;99.90;;;26.00;65.65;100015.13;4859277;29;21258;-67
2023/09/17 20:25:40;;;;;;;3.30;3.00;;;25.30;99.90;;;25.93;66.21;100003.72;4849778;29;21029;-67
2023/09/17 20:28:13;;;;;;;5.83;3.80;;;25.20;99.90;;;25.85;66.40;100004.00;4866034;29;21258;-68
2023/09/17 20:30:41;;;;;;;4.10;3.47;;;25.20;99.90;;;25.81;66.79;100010.81;4843847;29;20724;-67
2023/09/17 20:33:10;;;;;;;4.20;3.60;;;25.20;99.90;;;25.76;66.94;99993.84;4858861;29;21125;-69
2023/09/17 20:35:39;;;;;;;6.00;3.40;;;25.10;99.90;;;25.72;67.04;99998.81;4864838;29;20653;-68
2023/09/17 20:38:06;;;;;;;5.40;4.00;;;25.10;99.90;;;25.69;67.34;99999.25;4844092;29;20625;-65
2023/09/17 20:40:33;;;;;;;8.03;4.40;;;25.00;99.90;;;25.64;67.69;99996.44;4859614;29;20632;-68
2023/09/17 20:43:00;;;;;;;4.67;3.60;;;25.00;99.90;;;25.61;68.02;99996.06;4860480;29;20778;-68
2023/09/17 20:45:27;;;;;;;9.50;3.53;;;25.00;99.90;;;25.57;68.21;99997.56;4859421;29;21041;-68
2023/09/17 20:47:55;;;;;;;4.00;3.57;;;24.90;99.90;;;25.51;68.58;99995.78;4843321;29;21012;-67
2023/09/17 20:50:23;;;;;;;5.10;3.33;;;24.90;99.90;;;25.46;68.33;99996.44;4860312;29;20629;-68
2023/09/17 20:52:50;;;;;;;4.43;4.00;;;24.80;99.90;;;25.43;68.46;99999.53;4867827;29;20723;-67
2023/09/17 20:55:17;;;;;;;4.73;3.60;;;24.80;99.90;;;25.40;68.43;100000.78;4859306;29;20771;-68
2023/09/17 20:57:44;;;;;;;4.97;3.70;;;24.80;99.90;;;25.37;69.13;100000.41;4860178;29;20680;-67
2023/09/17 21:00:12;;;;;;;4.53;3.77;;;24.80;99.90;;;25.30;69.80;99996.97;4843271;29;20681;-68
2023/09/17 21:02:39;;;;;;;5.10;3.53;;;24.70;99.90;;;25.21;70.00;99996.44;4860211;29;20656;-66
2023/09/17 21:05:07;;;;;;;9.70;3.47;;;24.60;99.90;;;25.15;70.08;99986.66;4859627;29;20747;-66
2023/09/17 21:07:34;;;;;;;4.30;3.50;;;24.50;99.90;;;25.11;70.46;99988.13;4859642;29;21050;-67
2023/09/17 21:10:02;;;;;;;8.27;3.07;;;24.50;99.90;;;25.11;70.58;99981.97;4859421;29;20612;-66
2023/09/17 21:12:32;;;;;;;4.73;3.87;;;24.40;99.90;;;25.04;70.89;99979.38;4860182;29;20664;-69
2023/09/17 21:14:59;;;;;;;3.50;3.00;;;24.40;99.90;;;25.00;70.75;99972.03;4858964;29;21277;-66
2023/09/17 21:17:26;;;;;;;4.53;3.00;;;24.40;99.90;;;24.98;71.18;99974.09;4859663;29;21005;-64
2023/09/17 21:19:53;;;;;;;6.10;3.70;;;24.30;99.90;;;24.94;71.05;99968.38;4860434;29;21217;-66
2023/09/17 21:22:21;;;;;;;6.30;3.60;;;24.30;99.90;;;24.90;71.79;99964.50;4858752;29;20636;-65
2023/09/17 21:24:49;;;;;;;3.53;2.83;;;24.30;99.90;;;24.89;71.95;99962.88;4868752;29;20739;-65
2023/09/17 21:27:16;;;;;;;5.10;3.10;;;24.30;99.90;;;24.87;71.41;99961.47;4867380;29;20644;-66
2023/09/17 21:29:43;;;;;;;5.30;3.17;;;24.20;99.90;;;24.83;71.82;99965.59;4870432;29;20731;-65
2023/09/17 21:32:10;;;;;;;3.60;2.87;;;24.20;99.90;;;24.79;71.95;99959.88;4844677;29;21032;-69
2023/09/17 21:34:38;;;;;;;2.93;2.73;;;24.20;99.90;;;24.74;71.84;99965.06;4877548;29;21240;-70
2023/09/17 21:37:05;;;;;;;3.90;2.80;;;24.10;99.90;;;24.70;71.91;99958.50;4851713;29;20685;-68
2023/09/17 21:39:32;;;;;;;3.47;3.13;;;24.00;99.90;;;24.65;72.62;99959.16;4842152;29;21993;-68
2023/09/17 21:41:58;;;;;;;7.30;2.60;;;24.00;99.90;;;24.62;72.62;99958.75;4851377;29;20739;-67
2023/09/17 21:44:25;;;;;;;3.30;2.70;;;24.00;99.90;;;24.59;71.97;99957.34;4857238;29;20688;-69
2023/09/17 21:46:52;;;;;;;6.37;3.00;;;24.00;99.90;;;24.54;72.30;99956.34;4858653;29;21001;-67
2023/09/17 21:49:21;;;;;;;3.77;3.07;;;23.90;99.90;;;24.52;71.65;99953.91;4858987;29;20633;-68
2023/09/17 21:51:48;;;;;;;3.70;2.50;;;23.90;99.90;;;24.52;71.24;99951.25;4857811;29;20651;-66
2023/09/17 21:54:15;;;;;;;2.53;2.43;;;23.90;99.90;;;24.51;70.84;99946.94;4857654;29;20672;-66
2023/09/17 21:56:42;;;;;;;2.40;2.30;;;23.90;99.90;;;24.51;71.17;99946.94;4856322;29;20688;-66
2023/09/17 21:59:09;;;;;;;3.47;2.70;;;23.90;99.90;;;24.50;71.24;99945.31;4864812;29;20716;-67
2023/09/17 22:01:36;;;;;;;2.80;2.60;;;23.90;99.90;;;24.48;70.92;99943.88;4852673;29;20657;-66
2023/09/17 22:04:03;;;;;;;2.47;2.30;;;23.90;99.90;;;24.46;71.29;99946.78;4845675;29;20632;-68
2023/09/17 22:06:30;;;;;;;6.03;2.90;;;23.90;99.90;;;24.49;71.02;99949.00;4834938;29;20667;-66
2023/09/17 22:08:57;;;;;;;6.20;2.70;;;23.90;99.90;;;24.47;71.00;99943.06;4866169;29;20628;-66
2023/09/17 22:11:24;;;;;;;5.30;3.10;;;23.90;99.90;;;24.45;71.02;99952.31;4858863;29;20632;-66
2023/09/17 22:13:51;;;;;;;2.90;2.60;;;23.80;99.90;;;24.41;71.38;99946.59;4847720;29;20653;-67
2023/09/17 22:16:18;;;;;;;2.20;2.07;;;23.80;99.90;;;24.38;71.30;99939.03;4854462;29;20669;-68
2023/09/17 22:18:45;;;;;;;2.87;2.30;;;23.70;99.90;;;24.35;71.32;99926.13;4864973;29;20657;-65
2023/09/17 22:21:12;;;;;;;2.60;2.40;;;23.70;99.90;;;24.35;71.93;99927.97;4875880;29;20631;-68
2023/09/17 22:23:39;;;;;;;2.93;2.60;;;23.70;99.90;;;24.31;71.58;99916.94;4857476;29;20728;-67
2023/09/17 22:26:07;;;;;;;2.30;2.10;;;23.70;99.90;;;24.27;72.04;99912.25;4841271;29;20734;-69
2023/09/17 22:28:35;;;;;;;3.33;2.63;;;23.70;99.90;;;24.24;71.54;99905.50;4861972;29;21222;-68
2023/09/17 22:31:13;;;;;;;2.60;2.40;;;23.60;99.90;;;24.20;71.86;99912.28;4868919;29;20647;-68
2023/09/17 22:33:42;;;;;;;3.20;2.70;;;23.60;99.90;;;24.19;72.51;99907.19;4876095;29;20615;-67
2023/09/17 22:36:11;;;;;;;2.83;2.60;;;23.60;99.90;;;24.17;71.90;99903.94;4877303;29;20643;-67
2023/09/17 22:38:45;;;;;;;4.50;3.00;;;23.60;99.90;;;24.13;72.60;99900.84;4877800;29;20727;-68
2023/09/17 22:41:19;;;;;;;3.30;2.40;;;23.50;99.90;;;24.10;72.58;99900.47;4877738;29;20615;-67
2023/09/17 22:43:48;;;;;;;3.07;2.77;;;23.50;99.90;;;24.05;72.86;99885.13;4878330;29;20616;-67
2023/09/17 22:46:16;;;;;;;4.30;2.70;;;23.40;99.90;;;24.01;73.00;99881.22;4862200;29;20998;-67
2023/09/17 22:48:48;;;;;;;2.80;2.33;;;23.40;99.90;;;23.99;73.12;99877.16;4861120;29;21277;-68
2023/09/17 22:51:21;;;;;;;3.97;2.83;;;23.40;99.90;;;23.98;73.04;99884.31;4858213;29;21021;-68
2023/09/17 22:53:51;;;;;;;6.33;2.90;;;23.40;99.90;;;23.99;73.18;99883.31;4868489;29;20644;-68
2023/09/17 22:56:19;;;;;;;2.67;2.37;;;23.40;99.90;;;23.99;73.60;99877.16;4855359;29;20691;-68
2023/09/17 22:58:46;;;;;;;2.33;2.23;;;23.40;99.90;;;23.95;73.64;99883.94;4874867;29;20641;-66
2023/09/17 23:01:14;;;;;;;2.63;2.43;;;23.30;99.90;;;23.87;73.29;99883.16;4862107;29;20997;-68
2023/09/17 23:03:43;;;;;;;2.87;2.67;;;23.30;99.90;;;23.85;73.75;99881.75;4858244;29;20625;-66
2023/09/17 23:06:12;;;;;;;3.20;2.90;;;23.20;99.90;;;23.80;73.68;99879.72;4843531;29;20653;-65
2023/09/17 23:08:40;;;;;;;3.93;2.50;;;23.20;99.90;;;23.76;73.98;99875.03;4843101;29;20709;-65
2023/09/17 23:11:07;;;;;;;6.70;3.30;;;23.10;99.90;;;23.72;73.57;99877.28;4844590;29;20759;-65
2023/09/17 23:13:35;;;;;;;3.40;3.10;;;23.10;99.90;;;23.70;73.41;99875.91;4856635;29;20648;-65
2023/09/17 23:16:04;;;;;;;2.70;2.50;;;23.10;99.90;;;23.70;73.27;99878.56;4853671;29;20709;-65
2023/09/17 23:18:32;;;;;;;2.57;2.37;;;23.10;99.90;;;23.67;73.44;99881.63;4864993;29;20631;-67
2023/09/17 23:21:03;;;;;;;2.33;2.23;;;23.10;99.90;;;23.68;73.20;99877.97;4842310;29;21414;-65
2023/09/17 23:23:30;;;;;;;2.60;2.40;;;23.10;99.90;;;23.66;73.09;99872.81;4862047;29;20996;-65
2023/09/17 23:25:57;;;;;;;8.53;2.40;;;23.10;99.90;;;23.66;73.36;99877.34;4860664;29;20648;-67
2023/09/17 23:28:25;;;;;;;2.63;2.47;;;23.00;99.90;;;23.67;72.65;99881.63;4846922;29;20688;-65
2023/09/17 23:30:52;;;;;;;4.40;2.20;;;23.00;99.90;;;23.69;72.63;99876.91;4843095;29;21203;-66
2023/09/17 23:33:20;;;;;;;2.80;1.87;;;23.10;99.90;;;23.71;72.25;99875.66;4826125;29;20618;-65
2023/09/17 23:35:49;;;;;;;3.20;2.60;;;23.10;99.90;;;23.77;72.43;99871.31;4841836;29;20681;-65
2023/09/17 23:38:17;;;;;;;2.70;2.47;;;23.10;99.90;;;23.74;71.86;99871.78;4861849;29;20635;-66
2023/09/17 23:40:44;;;;;;;2.33;2.23;;;23.10;99.90;;;23.73;71.76;99873.63;4860533;29;20671;-67
2023/09/17 23:43:11;;;;;;;2.07;1.87;;;23.10;99.90;;;23.75;71.77;99866.22;4859590;29;21114;-65
2023/09/17 23:45:39;;;;;;;2.10;1.80;;;23.10;99.90;;;23.73;70.79;99864.78;4860214;29;20648;-65
2023/09/17 23:48:06;;;;;;;2.23;1.77;;;23.10;99.90;;;23.71;71.17;99858.88;4861270;29;20688;-65
2023/09/17 23:50:33;;;;;;;4.27;2.40;;;23.10;99.90;;;23.66;70.86;99859.50;4859355;29;20664;-65
2023/09/17 23:53:04;;;;;;;1.97;1.87;;;23.00;99.90;;;23.58;71.08;99848.28;4869127;29;21032;-66
2023/09/17 23:55:31;;;;;;;3.93;1.87;;;23.00;99.90;;;23.51;71.36;99853.63;4860610;29;20711;-65
2023/09/17 23:57:58;;;;;;;2.23;2.03;;;22.90;99.90;;;23.45;71.29;99843.00;4863762;29;21266;-66
